Flight Track Log - Related Links

Times and Time Zones

All times are in EDT time to prevent confusion due to time zone crossing. See the TAM3814 flight status page for this flight to view local times or setup timezone preferences in your user account.

Time Position Orientation Groundspeed Altitude Reporting Facility
EDT Latitude Longitude Course Direction KTS MPH feet Rate Location/Type
Sat 06:45:00 PM -20.5742 -44.7995 327° Northwest  Level Estimated
Sat 06:46:00 PM -20.5062 -44.8459 327° Northwest  Level Estimated
Sat 06:47:00 PM -20.4383 -44.8923 327° Northwest  Level Estimated
Sat 06:48:00 PM -20.3703 -44.9386 327° Northwest  Level Estimated
Sat 06:49:00 PM -20.3023 -44.9849 327° Northwest  Level Estimated
Sat 06:50:00 PM -20.2344 -45.0311 327° Northwest  Level Estimated
Sat 06:51:00 PM -20.1663 -45.0773 327° Northwest  Level Estimated
Sat 06:52:00 PM -20.0983 -45.1235 327° Northwest  Level Estimated
Sat 06:53:00 PM -20.0303 -45.1696 327° Northwest  Level Estimated
Sat 06:54:00 PM -19.9623 -45.2157 328° Northwest  Level Estimated
Sat 06:55:00 PM -19.8942 -45.2618 328° Northwest  Level Estimated
Sat 06:56:00 PM -19.8262 -45.3078 328° Northwest  Level Estimated
Sat 06:57:00 PM -19.7581 -45.3537 328° Northwest  Level Estimated
Sat 06:58:00 PM -19.6900 -45.3997 328° Northwest  Level Estimated
Sat 06:59:00 PM -19.6219 -45.4456 328° Northwest  Level Estimated
Sat 07:00:00 PM -19.5538 -45.4914 328° Northwest  Level Estimated
Sat 07:01:00 PM -19.4857 -45.5372 328° Northwest  Level Estimated
Sat 07:02:00 PM -19.4175 -45.5830 328° Northwest  Level Estimated
Sat 07:03:00 PM -19.3494 -45.6287 328° Northwest  Level Estimated
Sat 07:04:00 PM -19.2813 -45.6744 328° Northwest  Level Estimated
Sat 07:05:00 PM -19.2131 -45.7201 328° Northwest  Level Estimated
Sat 07:06:00 PM -19.1449 -45.7657 328° Northwest  Level Estimated
Sat 07:07:00 PM -19.0767 -45.8113 328° Northwest  Level Estimated
Sat 07:08:00 PM -19.0085 -45.8568 328° Northwest  Level Estimated
Sat 07:09:00 PM -18.9403 -45.9024 328° Northwest  Level Estimated
Sat 07:10:00 PM -18.8721 -45.9478 328° Northwest  Level Estimated
Sat 07:11:00 PM -18.8039 -45.9933 328° Northwest  Level Estimated
Sat 07:12:00 PM -18.7356 -46.0387 328° Northwest  Level Estimated
Sat 07:13:00 PM -18.6674 -46.0840 328° Northwest  Level Estimated
Sat 07:14:00 PM -18.5991 -46.1293 328° Northwest  Level Estimated
Sat 07:15:00 PM -18.5308 -46.1746 328° Northwest  Level Estimated
Sat 07:16:00 PM -18.4625 -46.2199 328° Northwest  Level Estimated
Sat 07:17:00 PM -18.3942 -46.2651 328° Northwest  Level Estimated
Sat 07:18:00 PM -18.3259 -46.3103 328° Northwest  Level Estimated
Sat 07:19:00 PM -18.2576 -46.3554 328° Northwest  Level Estimated
Sat 07:20:00 PM -18.1893 -46.4005 328° Northwest  Level Estimated
Sat 07:21:00 PM -18.1209 -46.4456 328° Northwest  Level Estimated
Sat 07:22:00 PM -18.0526 -46.4906 328° Northwest  Level Estimated
Sat 07:23:00 PM -17.9842 -46.5356 328° Northwest  Level Estimated
Sat 07:24:00 PM -17.9159 -46.5806 328° Northwest  Level Estimated
Sat 07:25:00 PM -17.8475 -46.6255 328° Northwest  Level Estimated
Sat 07:26:00 PM -17.7791 -46.6704 328° Northwest  Level Estimated
Sat 07:27:00 PM -17.7107 -46.7153 328° Northwest  Level Estimated
Sat 07:28:00 PM -17.6423 -46.7601 328° Northwest  Level Estimated
Sat 07:29:00 PM -17.5739 -46.8049 328° Northwest  Level Estimated
Sat 07:30:00 PM -17.5054 -46.8497 328° Northwest  Level Estimated
Sat 07:31:00 PM -17.4370 -46.8944 328° Northwest  Level Estimated
Sat 07:32:00 PM -17.3685 -46.9391 328° Northwest  Level Estimated
Sat 07:33:00 PM -17.3001 -46.9838 328° Northwest  Level Estimated
Sat 07:34:00 PM -17.2316 -47.0284 328° Northwest  Level Estimated
Sat 07:35:00 PM -17.1631 -47.0730 328° Northwest  Level Estimated
Sat 07:36:00 PM -17.0946 -47.1175 328° Northwest  Level Estimated
Sat 07:37:00 PM -17.0261 -47.1621 328° Northwest  Level Estimated
Sat 07:38:00 PM -16.9576 -47.2066 328° Northwest  Level Estimated
Sat 07:39:00 PM -16.8891 -47.2510 328° Northwest  Level Estimated
Sat 07:40:00 PM -16.8206 -47.2955 328° Northwest  Level Estimated
Sat 07:41:00 PM -16.7520 -47.3399 328° Northwest  Level Estimated
Sat 07:42:00 PM -16.6835 -47.3842 328° Northwest  Level Estimated
Sat 07:43:00 PM -16.6149 -47.4286 328° Northwest  Level Estimated
Sat 07:44:00 PM -16.5464 -47.4729 328° Northwest  Level Estimated
Sat 07:45:00 PM -16.4778 -47.5171 328° Northwest  Level Estimated
Sat 07:46:00 PM -16.4092 -47.5614 328° Northwest  Level Estimated
Sat 07:47:00 PM -16.3406 -47.6056 328° Northwest  Level Estimated
Sat 07:48:00 PM -16.2720 -47.6498 328° Northwest  Level Estimated
Sat 07:49:00 PM -16.2034 -47.6939 328° Northwest  Level Estimated
Sat 07:50:00 PM -16.1348 -47.7380 328° Northwest  Level Estimated
Sat 07:51:00 PM -16.0661 -47.7821 328° Northwest  Level Estimated
Sat 07:52:00 PM -15.9975 -47.8262 328° Northwest  Level Estimated
Sat 07:53:00 PM -15.9288 -47.8702 328° Northwest  Level Estimated
Sat 07:54:00 PM -15.8626 -47.9127 328° Northwest  Level Estimated
Sat 07:55:00 PM -15.8626 -47.9127 128° Southeast  Level Estimated
Sat 07:56:00 PM -15.8626 -47.9127 128° Southeast  Level Estimated
Sat 07:57:00 PM -15.8626 -47.9127 128° Southeast  Level Estimated
Sat 07:58:00 PM -15.8626 -47.9127 128° Southeast  Level Estimated
Sat 07:59:00 PM -15.8626 -47.9127 128° Southeast  Level Estimated
Sat 08:00:00 PM -15.8626 -47.9127 128° Southeast  Level Estimated
Sat 08:01:00 PM -15.8626 -47.9127 128° Southeast  Level Estimated
Sat 08:02:00 PM -15.8626 -47.9127 128° Southeast  Level Estimated
Sat 08:03:00 PM -15.8626 -47.9127 128° Southeast  Level Estimated
Sat 08:04:00 PM -15.8626 -47.9127 128° Southeast  Level Estimated
Sat 08:05:00 PM -15.8626 -47.9127 128° Southeast  Level Estimated
Sat 08:06:00 PM -15.8626 -47.9127 128° Southeast  Level Estimated
Sat 08:07:00 PM -15.8626 -47.9127 128° Southeast  Level Estimated
Sat 08:08:00 PM -15.8626 -47.9127 128° Southeast  Level Estimated
Sat 08:09:00 PM -15.8626 -47.9127 128° Southeast  Level Estimated
Sat 08:10:00 PM -15.8626 -47.9127 128° Southeast  Level Estimated

Login

Don't have an account? Register now (free) for customized features, flight alerts, and more!